sensor_id;sensor_type;location;lat;lon;timestamp;temperature;humidity
15690;DHT22;7945;48.816;11.506;2022-10-13T00:00:25;12.40;99.90
15690;DHT22;7945;48.816;11.506;2022-10-13T00:02:51;12.50;99.90
15690;DHT22;7945;48.816;11.506;2022-10-13T00:05:18;12.40;99.90
15690;DHT22;7945;48.816;11.506;2022-10-13T00:07:47;12.40;99.90
15690;DHT22;7945;48.816;11.506;2022-10-13T00:10:13;12.30;99.90
15690;DHT22;7945;48.816;11.506;2022-10-13T00:12:40;12.30;99.90
15690;DHT22;7945;48.816;11.506;2022-10-13T00:15:08;12.20;99.90
15690;DHT22;7945;48.816;11.506;2022-10-13T00:17:35;12.20;99.90
15690;DHT22;7945;48.816;11.506;2022-10-13T00:20:02;12.20;99.90
15690;DHT22;7945;48.816;11.506;2022-10-13T00:22:29;12.20;99.90
15690;DHT22;7945;48.816;11.506;2022-10-13T00:24:57;12.20;99.90
15690;DHT22;7945;48.816;11.506;2022-10-13T00:27:24;12.20;99.90
15690;DHT22;7945;48.816;11.506;2022-10-13T00:29:51;12.20;99.90
15690;DHT22;7945;48.816;11.506;2022-10-13T00:32:18;12.30;99.90
15690;DHT22;7945;48.816;11.506;2022-10-13T00:34:45;12.30;99.90
15690;DHT22;7945;48.816;11.506;2022-10-13T00:37:12;12.30;99.90
15690;DHT22;7945;48.816;11.506;2022-10-13T00:39:39;12.30;99.90
15690;DHT22;7945;48.816;11.506;2022-10-13T00:42:10;12.30;99.90
15690;DHT22;7945;48.816;11.506;2022-10-13T00:45:14;12.30;99.90
15690;DHT22;7945;48.816;11.506;2022-10-13T00:47:49;12.30;99.90
15690;DHT22;7945;48.816;11.506;2022-10-13T00:50:20;12.30;99.90
15690;DHT22;7945;48.816;11.506;2022-10-13T00:52:49;12.30;99.90
15690;DHT22;7945;48.816;11.506;2022-10-13T00:55:19;12.30;99.90
15690;DHT22;7945;48.816;11.506;2022-10-13T00:57:50;12.30;99.90
15690;DHT22;7945;48.816;11.506;2022-10-13T01:00:20;12.30;99.90
15690;DHT22;7945;48.816;11.506;2022-10-13T01:02:47;12.30;99.90
15690;DHT22;7945;48.816;11.506;2022-10-13T01:05:15;12.20;99.90
15690;DHT22;7945;48.816;11.506;2022-10-13T01:07:42;12.20;99.90
15690;DHT22;7945;48.816;11.506;2022-10-13T01:10:13;12.20;99.90
15690;DHT22;7945;48.816;11.506;2022-10-13T01:12:57;12.20;99.90
15690;DHT22;7945;48.816;11.506;2022-10-13T01:15:29;12.20;99.90
15690;DHT22;7945;48.816;11.506;2022-10-13T01:18:02;12.20;99.90
15690;DHT22;7945;48.816;11.506;2022-10-13T01:20:48;12.20;99.90
15690;DHT22;7945;48.816;11.506;2022-10-13T01:23:29;12.20;99.90
15690;DHT22;7945;48.816;11.506;2022-10-13T01:26:16;12.20;99.90
15690;DHT22;7945;48.816;11.506;2022-10-13T01:29:07;12.10;99.90
15690;DHT22;7945;48.816;11.506;2022-10-13T01:31:43;12.10;99.90
15690;DHT22;7945;48.816;11.506;2022-10-13T01:34:16;12.10;99.90
15690;DHT22;7945;48.816;11.506;2022-10-13T01:36:50;12.10;99.90
15690;DHT22;7945;48.816;11.506;2022-10-13T01:39:23;12.10;99.90
15690;DHT22;7945;48.816;11.506;2022-10-13T01:41:56;12.10;99.90
15690;DHT22;7945;48.816;11.506;2022-10-13T01:44:28;12.00;99.90
15690;DHT22;7945;48.816;11.506;2022-10-13T01:46:58;11.90;99.90
15690;DHT22;7945;48.816;11.506;2022-10-13T01:49:29;11.90;99.90
15690;DHT22;7945;48.816;11.506;2022-10-13T01:52:00;11.80;99.90
15690;DHT22;7945;48.816;11.506;2022-10-13T01:54:28;11.80;99.90
15690;DHT22;7945;48.816;11.506;2022-10-13T01:56:55;11.80;99.90
15690;DHT22;7945;48.816;11.506;2022-10-13T01:59:23;11.70;99.90
15690;DHT22;7945;48.816;11.506;2022-10-13T02:02:01;11.70;99.90
15690;DHT22;7945;48.816;11.506;2022-10-13T02:04:40;11.70;99.90
15690;DHT22;7945;48.816;11.506;2022-10-13T02:07:17;11.70;99.90
15690;DHT22;7945;48.816;11.506;2022-10-13T02:09:52;11.70;99.90
15690;DHT22;7945;48.816;11.506;2022-10-13T02:12:25;11.70;99.90
15690;DHT22;7945;48.816;11.506;2022-10-13T02:14:54;11.80;99.90
15690;DHT22;7945;48.816;11.506;2022-10-13T02:17:24;11.80;99.90
15690;DHT22;7945;48.816;11.506;2022-10-13T02:19:52;11.80;99.90
15690;DHT22;7945;48.816;11.506;2022-10-13T02:22:21;11.80;99.90
15690;DHT22;7945;48.816;11.506;2022-10-13T02:24:49;11.70;99.90
15690;DHT22;7945;48.816;11.506;2022-10-13T02:27:16;11.70;99.90
15690;DHT22;7945;48.816;11.506;2022-10-13T02:29:51;11.60;99.90
15690;DHT22;7945;48.816;11.506;2022-10-13T02:32:18;11.60;99.90
15690;DHT22;7945;48.816;11.506;2022-10-13T02:34:46;11.50;99.90
15690;DHT22;7945;48.816;11.506;2022-10-13T02:37:13;11.50;99.90
15690;DHT22;7945;48.816;11.506;2022-10-13T02:39:40;11.40;99.90
15690;DHT22;7945;48.816;11.506;2022-10-13T02:42:07;11.40;99.90
15690;DHT22;7945;48.816;11.506;2022-10-13T02:44:34;11.40;99.90
15690;DHT22;7945;48.816;11.506;2022-10-13T02:47:01;11.40;99.90
15690;DHT22;7945;48.816;11.506;2022-10-13T02:49:28;11.40;99.90
15690;DHT22;7945;48.816;11.506;2022-10-13T02:51:56;11.50;99.90
15690;DHT22;7945;48.816;11.506;2022-10-13T02:54:23;11.50;99.90
15690;DHT22;7945;48.816;11.506;2022-10-13T02:56:50;11.40;99.90
15690;DHT22;7945;48.816;11.506;2022-10-13T02:59:17;11.40;99.90
15690;DHT22;7945;48.816;11.506;2022-10-13T03:01:44;11.40;99.90
15690;DHT22;7945;48.816;11.506;2022-10-13T03:04:11;11.30;99.90
15690;DHT22;7945;48.816;11.506;2022-10-13T03:06:37;11.30;99.90
15690;DHT22;7945;48.816;11.506;2022-10-13T03:09:06;11.50;99.90
15690;DHT22;7945;48.816;11.506;2022-10-13T03:11:32;11.50;99.90
15690;DHT22;7945;48.816;11.506;2022-10-13T03:13:59;11.50;99.90
15690;DHT22;7945;48.816;11.506;2022-10-13T03:16:26;11.50;99.90
15690;DHT22;7945;48.816;11.506;2022-10-13T03:18:53;11.50;99.90
15690;DHT22;7945;48.816;11.506;2022-10-13T03:21:20;11.50;99.90
15690;DHT22;7945;48.816;11.506;2022-10-13T03:23:46;11.50;99.90
15690;DHT22;7945;48.816;11.506;2022-10-13T03:26:14;11.50;99.90
15690;DHT22;7945;48.816;11.506;2022-10-13T03:28:41;11.40;99.90
15690;DHT22;7945;48.816;11.506;2022-10-13T03:31:10;11.40;99.90
15690;DHT22;7945;48.816;11.506;2022-10-13T03:33:38;11.40;99.90
15690;DHT22;7945;48.816;11.506;2022-10-13T03:36:05;11.40;99.90
15690;DHT22;7945;48.816;11.506;2022-10-13T03:38:33;11.40;99.90
15690;DHT22;7945;48.816;11.506;2022-10-13T03:41:04;11.40;99.90
15690;DHT22;7945;48.816;11.506;2022-10-13T03:43:32;11.50;99.90
15690;DHT22;7945;48.816;11.506;2022-10-13T03:46:00;11.50;99.90
15690;DHT22;7945;48.816;11.506;2022-10-13T03:48:28;11.50;99.90
15690;DHT22;7945;48.816;11.506;2022-10-13T03:50:55;11.50;99.90
15690;DHT22;7945;48.816;11.506;2022-10-13T03:53:22;11.50;99.90
15690;DHT22;7945;48.816;11.506;2022-10-13T03:55:49;11.60;99.90
15690;DHT22;7945;48.816;11.506;2022-10-13T03:58:16;11.60;99.90
15690;DHT22;7945;48.816;11.506;2022-10-13T04:00:45;11.60;99.90
15690;DHT22;7945;48.816;11.506;2022-10-13T04:03:12;11.60;99.90
15690;DHT22;7945;48.816;11.506;2022-10-13T04:05:39;11.60;99.90
15690;DHT22;7945;48.816;11.506;2022-10-13T04:08:06;11.60;99.90
15690;DHT22;7945;48.816;11.506;2022-10-13T04:10:32;11.60;99.90
15690;DHT22;7945;48.816;11.506;2022-10-13T04:12:59;11.60;99.90
15690;DHT22;7945;48.816;11.506;2022-10-13T04:15:26;11.60;99.90
15690;DHT22;7945;48.816;11.506;2022-10-13T04:17:54;11.60;99.90
15690;DHT22;7945;48.816;11.506;2022-10-13T04:20:21;11.60;99.90
15690;DHT22;7945;48.816;11.506;2022-10-13T04:22:48;11.60;99.90
15690;DHT22;7945;48.816;11.506;2022-10-13T04:25:15;11.60;99.90
15690;DHT22;7945;48.816;11.506;2022-10-13T04:27:41;11.70;99.90
15690;DHT22;7945;48.816;11.506;2022-10-13T04:30:10;11.70;99.90
15690;DHT22;7945;48.816;11.506;2022-10-13T04:32:37;11.70;99.90
15690;DHT22;7945;48.816;11.506;2022-10-13T04:35:05;11.70;99.90
15690;DHT22;7945;48.816;11.506;2022-10-13T04:37:32;11.70;99.90
15690;DHT22;7945;48.816;11.506;2022-10-13T04:39:59;11.70;99.90
15690;DHT22;7945;48.816;11.506;2022-10-13T04:42:26;11.70;99.90
15690;DHT22;7945;48.816;11.506;2022-10-13T04:44:52;11.70;99.90
15690;DHT22;7945;48.816;11.506;2022-10-13T04:47:19;11.70;99.90
15690;DHT22;7945;48.816;11.506;2022-10-13T04:49:46;11.70;99.90
15690;DHT22;7945;48.816;11.506;2022-10-13T04:52:14;11.80;99.90
15690;DHT22;7945;48.816;11.506;2022-10-13T04:54:42;11.80;99.90
15690;DHT22;7945;48.816;11.506;2022-10-13T04:57:09;11.80;99.90
15690;DHT22;7945;48.816;11.506;2022-10-13T04:59:35;11.80;99.90
15690;DHT22;7945;48.816;11.506;2022-10-13T05:02:02;11.80;99.90
15690;DHT22;7945;48.816;11.506;2022-10-13T05:04:29;11.80;99.90
15690;DHT22;7945;48.816;11.506;2022-10-13T05:06:56;11.80;99.90
15690;DHT22;7945;48.816;11.506;2022-10-13T05:09:24;11.80;99.90
15690;DHT22;7945;48.816;11.506;2022-10-13T05:11:51;11.80;99.90
15690;DHT22;7945;48.816;11.506;2022-10-13T05:14:19;11.80;99.90
15690;DHT22;7945;48.816;11.506;2022-10-13T05:16:46;11.90;99.90
15690;DHT22;7945;48.816;11.506;2022-10-13T05:19:13;11.90;99.90
15690;DHT22;7945;48.816;11.506;2022-10-13T05:21:41;11.90;99.90
15690;DHT22;7945;48.816;11.506;2022-10-13T05:24:08;11.90;99.90
15690;DHT22;7945;48.816;11.506;2022-10-13T05:26:39;11.90;99.90
15690;DHT22;7945;48.816;11.506;2022-10-13T05:29:06;11.90;99.90
15690;DHT22;7945;48.816;11.506;2022-10-13T05:31:34;11.90;99.90
15690;DHT22;7945;48.816;11.506;2022-10-13T05:34:01;12.00;99.90
15690;DHT22;7945;48.816;11.506;2022-10-13T05:36:29;12.00;99.90
15690;DHT22;7945;48.816;11.506;2022-10-13T05:38:58;11.90;99.90
15690;DHT22;7945;48.816;11.506;2022-10-13T05:41:26;11.90;99.90
15690;DHT22;7945;48.816;11.506;2022-10-13T05:43:57;11.90;99.90
15690;DHT22;7945;48.816;11.506;2022-10-13T05:46:24;11.90;99.90
15690;DHT22;7945;48.816;11.506;2022-10-13T05:48:51;12.00;99.90
15690;DHT22;7945;48.816;11.506;2022-10-13T05:51:21;12.00;99.90
15690;DHT22;7945;48.816;11.506;2022-10-13T05:53:51;12.10;99.90
15690;DHT22;7945;48.816;11.506;2022-10-13T05:56:20;12.00;99.90
15690;DHT22;7945;48.816;11.506;2022-10-13T05:58:50;12.00;99.90
15690;DHT22;7945;48.816;11.506;2022-10-13T06:01:22;12.10;99.90
15690;DHT22;7945;48.816;11.506;2022-10-13T06:03:52;12.10;99.90
15690;DHT22;7945;48.816;11.506;2022-10-13T06:06:21;12.10;99.90
15690;DHT22;7945;48.816;11.506;2022-10-13T06:08:49;12.10;99.90
15690;DHT22;7945;48.816;11.506;2022-10-13T06:14:48;14.20;99.90
15690;DHT22;7945;48.816;11.506;2022-10-13T06:17:15;12.10;99.90
15690;DHT22;7945;48.816;11.506;2022-10-13T06:19:42;12.10;99.90
15690;DHT22;7945;48.816;11.506;2022-10-13T06:22:09;12.10;99.90
15690;DHT22;7945;48.816;11.506;2022-10-13T06:24:36;12.10;99.90
15690;DHT22;7945;48.816;11.506;2022-10-13T06:27:03;12.10;99.90
15690;DHT22;7945;48.816;11.506;2022-10-13T06:29:30;12.10;99.90
15690;DHT22;7945;48.816;11.506;2022-10-13T06:31:59;12.10;99.90
15690;DHT22;7945;48.816;11.506;2022-10-13T06:34:25;12.10;99.90
15690;DHT22;7945;48.816;11.506;2022-10-13T06:36:52;12.10;99.90
15690;DHT22;7945;48.816;11.506;2022-10-13T06:39:20;12.10;99.90
15690;DHT22;7945;48.816;11.506;2022-10-13T06:41:46;12.20;99.90
15690;DHT22;7945;48.816;11.506;2022-10-13T06:44:13;12.20;99.90
15690;DHT22;7945;48.816;11.506;2022-10-13T06:46:40;12.20;99.90
15690;DHT22;7945;48.816;11.506;2022-10-13T06:49:08;12.30;99.90
15690;DHT22;7945;48.816;11.506;2022-10-13T06:51:35;12.30;99.90
15690;DHT22;7945;48.816;11.506;2022-10-13T06:54:02;12.30;99.90
15690;DHT22;7945;48.816;11.506;2022-10-13T06:56:29;12.40;99.90
15690;DHT22;7945;48.816;11.506;2022-10-13T06:58:56;12.50;99.90
15690;DHT22;7945;48.816;11.506;2022-10-13T07:01:22;12.50;99.90
15690;DHT22;7945;48.816;11.506;2022-10-13T07:03:49;12.50;99.90
15690;DHT22;7945;48.816;11.506;2022-10-13T07:06:18;12.50;99.90
15690;DHT22;7945;48.816;11.506;2022-10-13T07:08:45;12.60;99.90
15690;DHT22;7945;48.816;11.506;2022-10-13T07:11:13;12.60;99.90
15690;DHT22;7945;48.816;11.506;2022-10-13T07:13:41;12.70;99.90
15690;DHT22;7945;48.816;11.506;2022-10-13T07:16:08;12.70;99.90
15690;DHT22;7945;48.816;11.506;2022-10-13T07:18:35;12.70;99.90
15690;DHT22;7945;48.816;11.506;2022-10-13T07:21:03;12.70;99.90
15690;DHT22;7945;48.816;11.506;2022-10-13T07:23:32;12.70;99.90
15690;DHT22;7945;48.816;11.506;2022-10-13T07:25:59;12.70;99.90
15690;DHT22;7945;48.816;11.506;2022-10-13T07:28:26;12.70;99.90
15690;DHT22;7945;48.816;11.506;2022-10-13T07:30:53;12.70;99.90
15690;DHT22;7945;48.816;11.506;2022-10-13T07:33:20;12.70;99.90
15690;DHT22;7945;48.816;11.506;2022-10-13T07:35:47;12.70;99.90
15690;DHT22;7945;48.816;11.506;2022-10-13T07:38:14;12.70;99.90
15690;DHT22;7945;48.816;11.506;2022-10-13T07:40:42;12.70;99.90
15690;DHT22;7945;48.816;11.506;2022-10-13T07:43:09;12.80;99.90
15690;DHT22;7945;48.816;11.506;2022-10-13T07:45:35;12.80;99.90
15690;DHT22;7945;48.816;11.506;2022-10-13T07:48:03;12.80;99.90
15690;DHT22;7945;48.816;11.506;2022-10-13T07:50:29;12.80;99.90
15690;DHT22;7945;48.816;11.506;2022-10-13T07:52:56;12.80;99.90
15690;DHT22;7945;48.816;11.506;2022-10-13T07:55:23;12.80;99.90
15690;DHT22;7945;48.816;11.506;2022-10-13T07:57:51;12.80;99.90
15690;DHT22;7945;48.816;11.506;2022-10-13T08:00:18;12.90;99.90
15690;DHT22;7945;48.816;11.506;2022-10-13T08:02:48;12.90;99.90
15690;DHT22;7945;48.816;11.506;2022-10-13T08:05:16;12.90;99.90
15690;DHT22;7945;48.816;11.506;2022-10-13T08:07:43;13.00;99.90
15690;DHT22;7945;48.816;11.506;2022-10-13T08:10:10;13.00;99.90
15690;DHT22;7945;48.816;11.506;2022-10-13T08:12:37;13.10;99.90
15690;DHT22;7945;48.816;11.506;2022-10-13T08:15:06;13.10;99.90
15690;DHT22;7945;48.816;11.506;2022-10-13T08:17:33;13.10;99.90
15690;DHT22;7945;48.816;11.506;2022-10-13T08:20:01;13.10;99.90
15690;DHT22;7945;48.816;11.506;2022-10-13T08:22:28;13.10;99.90
15690;DHT22;7945;48.816;11.506;2022-10-13T08:24:55;13.10;99.90
15690;DHT22;7945;48.816;11.506;2022-10-13T08:27:23;13.10;99.90
15690;DHT22;7945;48.816;11.506;2022-10-13T08:29:50;13.10;99.90
15690;DHT22;7945;48.816;11.506;2022-10-13T08:32:21;13.10;99.90
15690;DHT22;7945;48.816;11.506;2022-10-13T08:34:48;13.10;99.90
15690;DHT22;7945;48.816;11.506;2022-10-13T08:37:16;13.10;99.90
15690;DHT22;7945;48.816;11.506;2022-10-13T08:39:43;13.10;99.90
15690;DHT22;7945;48.816;11.506;2022-10-13T08:42:14;13.10;99.90
15690;DHT22;7945;48.816;11.506;2022-10-13T08:44:44;13.10;99.90
15690;DHT22;7945;48.816;11.506;2022-10-13T08:47:17;13.20;99.90
15690;DHT22;7945;48.816;11.506;2022-10-13T08:49:48;13.20;99.90
15690;DHT22;7945;48.816;11.506;2022-10-13T08:52:17;13.20;99.90
15690;DHT22;7945;48.816;11.506;2022-10-13T08:54:45;13.20;99.90
15690;DHT22;7945;48.816;11.506;2022-10-13T08:57:12;13.30;99.90
15690;DHT22;7945;48.816;11.506;2022-10-13T08:59:39;13.30;99.90
15690;DHT22;7945;48.816;11.506;2022-10-13T09:02:10;13.30;99.90
15690;DHT22;7945;48.816;11.506;2022-10-13T09:04:39;13.30;99.90
15690;DHT22;7945;48.816;11.506;2022-10-13T09:07:13;13.20;99.90
15690;DHT22;7945;48.816;11.506;2022-10-13T09:09:41;13.20;99.90
15690;DHT22;7945;48.816;11.506;2022-10-13T09:12:09;13.20;99.90
15690;DHT22;7945;48.816;11.506;2022-10-13T09:14:38;13.10;99.90
15690;DHT22;7945;48.816;11.506;2022-10-13T09:17:17;13.10;99.90
15690;DHT22;7945;48.816;11.506;2022-10-13T09:19:56;13.10;99.90
15690;DHT22;7945;48.816;11.506;2022-10-13T09:22:26;13.00;99.90
15690;DHT22;7945;48.816;11.506;2022-10-13T09:25:19;13.00;99.90
15690;DHT22;7945;48.816;11.506;2022-10-13T09:27:48;13.00;99.90
15690;DHT22;7945;48.816;11.506;2022-10-13T09:30:27;13.10;99.90
15690;DHT22;7945;48.816;11.506;2022-10-13T09:33:20;13.10;99.90
15690;DHT22;7945;48.816;11.506;2022-10-13T09:35:49;13.10;99.90
15690;DHT22;7945;48.816;11.506;2022-10-13T09:38:33;13.10;99.90
15690;DHT22;7945;48.816;11.506;2022-10-13T09:41:03;13.10;99.90
15690;DHT22;7945;48.816;11.506;2022-10-13T09:43:32;13.20;99.90
15690;DHT22;7945;48.816;11.506;2022-10-13T09:46:00;13.30;99.90
15690;DHT22;7945;48.816;11.506;2022-10-13T09:48:30;13.30;99.90
15690;DHT22;7945;48.816;11.506;2022-10-13T09:50:57;13.30;99.90
15690;DHT22;7945;48.816;11.506;2022-10-13T09:53:29;13.40;99.90
15690;DHT22;7945;48.816;11.506;2022-10-13T09:56:17;13.40;99.90
15690;DHT22;7945;48.816;11.506;2022-10-13T09:58:49;13.50;99.90
15690;DHT22;7945;48.816;11.506;2022-10-13T10:01:23;13.40;99.90
15690;DHT22;7945;48.816;11.506;2022-10-13T10:03:52;13.40;99.90
15690;DHT22;7945;48.816;11.506;2022-10-13T10:06:19;13.40;99.90
15690;DHT22;7945;48.816;11.506;2022-10-13T10:08:52;13.30;99.90
15690;DHT22;7945;48.816;11.506;2022-10-13T10:11:26;13.30;99.90
15690;DHT22;7945;48.816;11.506;2022-10-13T10:13:54;14.70;99.90
15690;DHT22;7945;48.816;11.506;2022-10-13T10:16:24;13.30;99.90
15690;DHT22;7945;48.816;11.506;2022-10-13T10:18:59;13.30;99.90
15690;DHT22;7945;48.816;11.506;2022-10-13T10:21:33;13.30;99.90
15690;DHT22;7945;48.816;11.506;2022-10-13T10:24:07;13.30;99.90
15690;DHT22;7945;48.816;11.506;2022-10-13T10:26:47;13.40;99.90
15690;DHT22;7945;48.816;11.506;2022-10-13T10:29:23;13.50;99.90
15690;DHT22;7945;48.816;11.506;2022-10-13T10:32:03;13.50;99.90
15690;DHT22;7945;48.816;11.506;2022-10-13T10:34:35;13.60;99.90
15690;DHT22;7945;48.816;11.506;2022-10-13T10:37:19;13.60;99.90
15690;DHT22;7945;48.816;11.506;2022-10-13T10:39:59;13.70;99.90
15690;DHT22;7945;48.816;11.506;2022-10-13T10:42:43;13.70;99.90
15690;DHT22;7945;48.816;11.506;2022-10-13T10:45:15;13.90;99.90
15690;DHT22;7945;48.816;11.506;2022-10-13T10:47:45;13.90;99.90
15690;DHT22;7945;48.816;11.506;2022-10-13T10:50:14;14.00;99.90
15690;DHT22;7945;48.816;11.506;2022-10-13T10:52:49;14.10;99.90
15690;DHT22;7945;48.816;11.506;2022-10-13T10:55:24;14.10;99.90
15690;DHT22;7945;48.816;11.506;2022-10-13T10:58:02;14.20;99.90
15690;DHT22;7945;48.816;11.506;2022-10-13T11:00:36;14.30;99.90
15690;DHT22;7945;48.816;11.506;2022-10-13T11:03:09;14.30;99.90
15690;DHT22;7945;48.816;11.506;2022-10-13T11:05:58;14.20;99.90
15690;DHT22;7945;48.816;11.506;2022-10-13T11:08:27;14.20;99.90
15690;DHT22;7945;48.816;11.506;2022-10-13T11:11:28;14.20;99.90
15690;DHT22;7945;48.816;11.506;2022-10-13T11:13:57;14.30;99.90
15690;DHT22;7945;48.816;11.506;2022-10-13T11:16:28;14.40;99.90
15690;DHT22;7945;48.816;11.506;2022-10-13T11:19:03;14.50;99.90
15690;DHT22;7945;48.816;11.506;2022-10-13T11:25:07;14.70;99.90
15690;DHT22;7945;48.816;11.506;2022-10-13T11:27:54;14.80;99.90
15690;DHT22;7945;48.816;11.506;2022-10-13T11:30:45;14.90;99.90
15690;DHT22;7945;48.816;11.506;2022-10-13T11:33:33;14.90;99.90
15690;DHT22;7945;48.816;11.506;2022-10-13T11:36:27;15.00;99.90
15690;DHT22;7945;48.816;11.506;2022-10-13T11:39:01;15.00;99.90
15690;DHT22;7945;48.816;11.506;2022-10-13T11:41:35;15.00;99.90
15690;DHT22;7945;48.816;11.506;2022-10-13T11:44:11;15.00;99.90
15690;DHT22;7945;48.816;11.506;2022-10-13T11:46:56;15.20;99.90
15690;DHT22;7945;48.816;11.506;2022-10-13T11:49:50;15.30;99.90
15690;DHT22;7945;48.816;11.506;2022-10-13T11:55:16;15.60;99.90
15690;DHT22;7945;48.816;11.506;2022-10-13T11:57:44;15.80;99.90
15690;DHT22;7945;48.816;11.506;2022-10-13T12:00:14;15.90;99.90
15690;DHT22;7945;48.816;11.506;2022-10-13T12:02:48;15.90;99.90
15690;DHT22;7945;48.816;11.506;2022-10-13T12:05:22;16.00;99.90
15690;DHT22;7945;48.816;11.506;2022-10-13T12:07:51;16.10;99.90
15690;DHT22;7945;48.816;11.506;2022-10-13T12:10:22;16.30;99.90
15690;DHT22;7945;48.816;11.506;2022-10-13T12:12:50;16.40;99.90
15690;DHT22;7945;48.816;11.506;2022-10-13T12:15:41;16.40;99.90
15690;DHT22;7945;48.816;11.506;2022-10-13T12:18:24;16.40;99.90
15690;DHT22;7945;48.816;11.506;2022-10-13T12:20:53;16.40;99.90
15690;DHT22;7945;48.816;11.506;2022-10-13T12:23:20;16.40;99.90
15690;DHT22;7945;48.816;11.506;2022-10-13T12:25:48;16.40;99.90
15690;DHT22;7945;48.816;11.506;2022-10-13T12:28:21;16.40;99.90
15690;DHT22;7945;48.816;11.506;2022-10-13T12:30:51;16.40;99.90
15690;DHT22;7945;48.816;11.506;2022-10-13T12:33:25;16.50;99.90
15690;DHT22;7945;48.816;11.506;2022-10-13T12:35:52;16.50;99.90
15690;DHT22;7945;48.816;11.506;2022-10-13T12:38:19;16.50;99.90
15690;DHT22;7945;48.816;11.506;2022-10-13T12:40:49;16.50;99.90
15690;DHT22;7945;48.816;11.506;2022-10-13T12:43:18;16.50;99.90
15690;DHT22;7945;48.816;11.506;2022-10-13T12:45:48;16.50;99.90
15690;DHT22;7945;48.816;11.506;2022-10-13T12:48:34;16.50;99.90
15690;DHT22;7945;48.816;11.506;2022-10-13T12:51:15;16.50;99.90
15690;DHT22;7945;48.816;11.506;2022-10-13T12:53:42;16.50;99.90
15690;DHT22;7945;48.816;11.506;2022-10-13T12:56:27;16.50;99.90
15690;DHT22;7945;48.816;11.506;2022-10-13T12:58:55;16.60;99.90
15690;DHT22;7945;48.816;11.506;2022-10-13T13:01:29;16.50;99.90
15690;DHT22;7945;48.816;11.506;2022-10-13T13:04:00;16.60;99.90
15690;DHT22;7945;48.816;11.506;2022-10-13T13:06:35;16.50;99.90
15690;DHT22;7945;48.816;11.506;2022-10-13T13:09:07;16.50;99.90
15690;DHT22;7945;48.816;11.506;2022-10-13T13:11:43;16.50;99.90
15690;DHT22;7945;48.816;11.506;2022-10-13T13:14:21;16.50;99.90
15690;DHT22;7945;48.816;11.506;2022-10-13T13:17:01;16.60;99.90
15690;DHT22;7945;48.816;11.506;2022-10-13T13:19:31;16.60;99.90
15690;DHT22;7945;48.816;11.506;2022-10-13T13:21:58;16.70;99.90
15690;DHT22;7945;48.816;11.506;2022-10-13T13:24:25;16.70;99.90
15690;DHT22;7945;48.816;11.506;2022-10-13T13:26:52;16.70;99.90
15690;DHT22;7945;48.816;11.506;2022-10-13T13:29:19;16.80;99.90
15690;DHT22;7945;48.816;11.506;2022-10-13T13:31:46;16.80;99.90
15690;DHT22;7945;48.816;11.506;2022-10-13T13:34:12;16.80;99.90
15690;DHT22;7945;48.816;11.506;2022-10-13T13:36:41;16.90;99.90
15690;DHT22;7945;48.816;11.506;2022-10-13T13:39:13;16.90;99.90
15690;DHT22;7945;48.816;11.506;2022-10-13T13:41:40;16.90;99.90
15690;DHT22;7945;48.816;11.506;2022-10-13T13:44:07;16.90;99.90
15690;DHT22;7945;48.816;11.506;2022-10-13T13:46:34;16.90;99.90
15690;DHT22;7945;48.816;11.506;2022-10-13T13:49:01;16.90;99.90
15690;DHT22;7945;48.816;11.506;2022-10-13T13:51:28;17.00;99.90
15690;DHT22;7945;48.816;11.506;2022-10-13T13:53:56;16.90;99.90
15690;DHT22;7945;48.816;11.506;2022-10-13T13:56:24;16.90;99.90
15690;DHT22;7945;48.816;11.506;2022-10-13T13:58:51;16.90;99.90
15690;DHT22;7945;48.816;11.506;2022-10-13T14:01:18;16.90;99.90
15690;DHT22;7945;48.816;11.506;2022-10-13T14:03:44;16.90;99.90
15690;DHT22;7945;48.816;11.506;2022-10-13T14:06:16;16.90;99.90
15690;DHT22;7945;48.816;11.506;2022-10-13T14:08:43;16.90;99.90
15690;DHT22;7945;48.816;11.506;2022-10-13T14:11:11;17.00;99.90
15690;DHT22;7945;48.816;11.506;2022-10-13T14:13:38;17.00;99.90
15690;DHT22;7945;48.816;11.506;2022-10-13T14:16:05;16.90;99.90
15690;DHT22;7945;48.816;11.506;2022-10-13T14:18:32;16.90;99.90
15690;DHT22;7945;48.816;11.506;2022-10-13T14:20:59;17.00;99.90
15690;DHT22;7945;48.816;11.506;2022-10-13T14:23:26;17.10;99.90
15690;DHT22;7945;48.816;11.506;2022-10-13T14:25:53;17.20;99.90
15690;DHT22;7945;48.816;11.506;2022-10-13T14:28:21;17.10;99.90
15690;DHT22;7945;48.816;11.506;2022-10-13T14:30:48;17.00;99.90
15690;DHT22;7945;48.816;11.506;2022-10-13T14:33:14;17.00;99.90
15690;DHT22;7945;48.816;11.506;2022-10-13T14:35:44;17.00;99.90
15690;DHT22;7945;48.816;11.506;2022-10-13T14:38:11;17.00;99.90
15690;DHT22;7945;48.816;11.506;2022-10-13T14:40:39;16.90;99.90
15690;DHT22;7945;48.816;11.506;2022-10-13T14:43:06;16.90;99.90
15690;DHT22;7945;48.816;11.506;2022-10-13T14:45:34;16.90;99.90
15690;DHT22;7945;48.816;11.506;2022-10-13T14:48:01;16.80;99.90
15690;DHT22;7945;48.816;11.506;2022-10-13T14:50:28;16.80;99.90
15690;DHT22;7945;48.816;11.506;2022-10-13T14:52:55;16.80;99.90
15690;DHT22;7945;48.816;11.506;2022-10-13T14:55:22;16.80;99.90
15690;DHT22;7945;48.816;11.506;2022-10-13T14:57:49;16.70;99.90
15690;DHT22;7945;48.816;11.506;2022-10-13T15:00:15;16.70;99.90
15690;DHT22;7945;48.816;11.506;2022-10-13T15:02:44;16.70;99.90
15690;DHT22;7945;48.816;11.506;2022-10-13T15:05:11;16.70;99.90
15690;DHT22;7945;48.816;11.506;2022-10-13T15:07:37;16.70;99.90
15690;DHT22;7945;48.816;11.506;2022-10-13T15:10:05;16.70;99.90
15690;DHT22;7945;48.816;11.506;2022-10-13T15:12:33;16.70;99.90
15690;DHT22;7945;48.816;11.506;2022-10-13T15:14:59;16.70;99.90
15690;DHT22;7945;48.816;11.506;2022-10-13T15:17:26;16.70;99.90
15690;DHT22;7945;48.816;11.506;2022-10-13T15:19:54;16.70;99.90
15690;DHT22;7945;48.816;11.506;2022-10-13T15:22:21;16.60;99.90
15690;DHT22;7945;48.816;11.506;2022-10-13T15:24:48;16.50;99.90
15690;DHT22;7945;48.816;11.506;2022-10-13T15:27:15;16.50;99.90
15690;DHT22;7945;48.816;11.506;2022-10-13T15:29:41;16.50;99.90
15690;DHT22;7945;48.816;11.506;2022-10-13T15:32:10;16.40;99.90
15690;DHT22;7945;48.816;11.506;2022-10-13T15:34:38;16.40;99.90
15690;DHT22;7945;48.816;11.506;2022-10-13T15:37:06;16.40;99.90
15690;DHT22;7945;48.816;11.506;2022-10-13T15:39:33;16.40;99.90
15690;DHT22;7945;48.816;11.506;2022-10-13T15:42:00;16.30;99.90
15690;DHT22;7945;48.816;11.506;2022-10-13T15:44:27;16.30;99.90
15690;DHT22;7945;48.816;11.506;2022-10-13T15:46:55;16.30;99.90
15690;DHT22;7945;48.816;11.506;2022-10-13T15:49:23;16.30;99.90
15690;DHT22;7945;48.816;11.506;2022-10-13T15:51:51;16.30;99.90
15690;DHT22;7945;48.816;11.506;2022-10-13T15:54:19;16.20;99.90
15690;DHT22;7945;48.816;11.506;2022-10-13T15:56:47;16.20;99.90